TAFOR
Diposting tanggal: 10 Juni 2019

Pukul :

Isi :

TAF WAGI 212300Z 2200/2212 31006KT 9000 SCT012 TEMPO 2207/2209 18007KT 3000 RA BKN012=